Time;durP1;ratioP1;P1;durP2;ratioP2;P2;SDS_P1;SDS_P2;PMS_P1;PMS_P2;Temp;Humidity;BMP_temperature;BMP_pressure;BME280_temperature;BME280_humidity;BME280_pressure;Samples;Min_cycle;Max_cycle;Signal;HPM_P1;HPM_P2
2022/05/09 00:01:14;;;;;;;3.70;2.63;;;12.40;80.70;;;;;;4976320;28;20209;-68
2022/05/09 00:03:42;;;;;;;4.87;2.87;;;12.40;81.30;;;;;;4976863;28;20304;-70
2022/05/09 00:06:11;;;;;;;4.20;2.73;;;12.30;81.50;;;;;;4977235;28;20215;-70
2022/05/09 00:08:39;;;;;;;5.13;3.33;;;12.30;82.10;;;;;;4977008;28;20639;-69
2022/05/09 00:11:07;;;;;;;4.30;3.03;;;12.30;82.30;;;;;;4963464;28;20204;-70
2022/05/09 00:13:33;;;;;;;5.07;2.77;;;12.20;82.80;;;;;;4976811;28;20338;-69
2022/05/09 00:16:00;;;;;;;5.90;2.93;;;12.20;83.30;;;;;;4976687;28;20672;-69
2022/05/09 00:18:27;;;;;;;4.63;2.90;;;12.10;83.70;;;;;;4976819;28;20208;-69
2022/05/09 00:20:54;;;;;;;8.20;3.60;;;12.10;84.10;;;;;;4976093;28;20300;-69
2022/05/09 00:23:22;;;;;;;5.83;3.03;;;12.20;84.60;;;;;;4976035;28;20197;-68
2022/05/09 00:25:49;;;;;;;7.87;3.00;;;12.10;84.80;;;;;;4976738;28;20642;-69
2022/05/09 00:28:16;;;;;;;5.73;3.23;;;12.00;85.00;;;;;;4975995;28;20240;-69
2022/05/09 00:30:43;;;;;;;5.57;3.43;;;12.00;85.50;;;;;;4977219;28;20251;-69
2022/05/09 00:33:10;;;;;;;4.33;2.87;;;11.90;85.80;;;;;;4976247;28;20231;-69
2022/05/09 00:35:37;;;;;;;4.17;2.90;;;11.90;86.50;;;;;;4975257;28;20655;-69
2022/05/09 00:38:05;;;;;;;4.50;3.17;;;11.90;86.80;;;;;;4976250;28;20619;-69
2022/05/09 00:40:33;;;;;;;5.03;2.97;;;11.80;86.80;;;;;;4975795;28;20212;-69
2022/05/09 00:43:01;;;;;;;5.30;2.83;;;11.80;87.60;;;;;;4975774;28;20665;-70
2022/05/09 00:45:28;;;;;;;4.23;2.93;;;11.80;88.70;;;;;;4976527;28;20276;-70
2022/05/09 00:47:55;;;;;;;6.10;3.37;;;11.80;88.60;;;;;;4976084;28;20582;-69
2022/05/09 00:50:31;;;;;;;3.87;3.03;;;11.80;88.80;;;;;;4975484;28;20259;-70
2022/05/09 00:53:00;;;;;;;4.03;3.03;;;11.70;88.90;;;;;;4976813;28;20239;-69
2022/05/09 00:55:30;;;;;;;4.80;2.90;;;11.80;89.20;;;;;;4977110;28;20287;-69
2022/05/09 00:58:08;;;;;;;4.40;2.90;;;11.70;89.40;;;;;;4976412;28;20212;-70
2022/05/09 01:00:35;;;;;;;4.93;2.97;;;11.70;89.80;;;;;;4975370;28;20235;-70
2022/05/09 01:03:06;;;;;;;3.63;2.70;;;11.60;90.00;;;;;;4977284;28;20291;-69
2022/05/09 01:05:33;;;;;;;4.17;3.17;;;11.60;90.10;;;;;;4975955;28;20631;-70
2022/05/09 01:08:00;;;;;;;3.53;2.70;;;11.60;90.20;;;;;;4977051;28;20638;-69
2022/05/09 01:10:35;;;;;;;4.60;3.17;;;11.50;90.40;;;;;;4976381;28;20236;-69
2022/05/09 01:13:06;;;;;;;3.53;2.80;;;11.50;90.60;;;;;;4975764;28;20219;-69
2022/05/09 01:15:33;;;;;;;3.37;2.43;;;11.50;90.80;;;;;;4975208;28;20264;-68
2022/05/09 01:18:04;;;;;;;3.27;2.60;;;11.40;90.80;;;;;;4975449;28;20283;-69
2022/05/09 01:20:31;;;;;;;3.30;2.80;;;11.40;91.00;;;;;;4975810;28;20657;-70
2022/05/09 01:23:02;;;;;;;4.00;2.70;;;11.40;91.20;;;;;;4974689;28;20236;-69
2022/05/09 01:25:29;;;;;;;3.60;2.63;;;11.40;91.40;;;;;;4975863;28;20204;-69
2022/05/09 01:27:56;;;;;;;3.47;3.00;;;11.50;91.50;;;;;;4963615;28;20209;-69
2022/05/09 01:30:33;;;;;;;3.10;2.60;;;11.40;91.50;;;;;;4968159;28;20253;-71
2022/05/09 01:33:04;;;;;;;4.30;2.90;;;11.40;91.70;;;;;;4971734;28;20740;-70
2022/05/09 01:35:38;;;;;;;3.97;2.73;;;11.40;91.70;;;;;;4977728;28;20236;-71
2022/05/09 01:38:14;;;;;;;3.93;2.87;;;11.30;91.70;;;;;;4973781;28;20209;-69
2022/05/09 01:40:41;;;;;;;4.97;2.90;;;11.30;91.90;;;;;;4968856;28;20299;-70
2022/05/09 01:43:07;;;;;;;4.73;2.97;;;11.20;92.00;;;;;;4978380;28;20845;-70
2022/05/09 01:45:34;;;;;;;3.57;2.80;;;11.20;92.10;;;;;;4976650;28;20673;-69
2022/05/09 01:50:46;;;;;;;4.67;2.93;;;11.20;92.30;;;;;;4979368;28;20680;-70
2022/05/09 01:53:15;;;;;;;3.13;2.80;;;11.10;92.50;;;;;;4969877;28;20288;-68
2022/05/09 01:55:41;;;;;;;3.27;2.90;;;11.10;92.90;;;;;;4969970;28;20202;-70
2022/05/09 01:58:08;;;;;;;5.07;3.07;;;11.00;92.50;;;;;;4975240;28;20243;-68
2022/05/09 02:00:35;;;;;;;3.60;2.70;;;11.00;92.70;;;;;;4975299;28;20291;-69
2022/05/09 02:03:02;;;;;;;3.13;2.83;;;10.90;92.90;;;;;;4978779;28;20220;-70
2022/05/09 02:05:29;;;;;;;2.70;2.40;;;10.90;93.20;;;;;;4972600;28;20219;-70
2022/05/09 02:07:56;;;;;;;3.97;2.67;;;10.80;93.20;;;;;;4973667;28;20215;-69
2022/05/09 02:10:24;;;;;;;4.70;2.70;;;10.80;93.40;;;;;;4978458;28;20280;-69
2022/05/09 02:12:51;;;;;;;3.37;2.60;;;10.80;93.40;;;;;;4973701;28;20693;-69
2022/05/09 02:15:18;;;;;;;5.60;3.07;;;10.70;93.40;;;;;;4972249;28;20311;-70
2022/05/09 02:17:47;;;;;;;3.00;2.20;;;10.70;93.40;;;;;;4969286;28;20217;-69
2022/05/09 02:20:14;;;;;;;4.40;2.83;;;10.70;93.40;;;;;;4963761;28;20209;-69
2022/05/09 02:22:41;;;;;;;4.90;2.40;;;10.70;93.30;;;;;;4970216;28;20568;-68
2022/05/09 02:27:51;;;;;;;3.30;2.73;;;10.60;93.30;;;;;;4967563;28;20201;-70
2022/05/09 02:30:18;;;;;;;4.07;2.50;;;10.60;93.20;;;;;;4970507;28;20244;-69
2022/05/09 02:32:45;;;;;;;3.00;2.27;;;10.50;93.30;;;;;;4977714;28;20290;-68
2022/05/09 02:35:12;;;;;;;3.13;2.67;;;10.60;93.40;;;;;;4973061;28;20249;-69
2022/05/09 02:37:39;;;;;;;4.60;2.70;;;10.50;93.40;;;;;;4975883;28;20554;-69
2022/05/09 02:40:07;;;;;;;2.97;2.23;;;10.60;93.50;;;;;;4979349;28;20240;-69
2022/05/09 02:42:34;;;;;;;5.03;2.30;;;10.50;93.40;;;;;;4981008;28;20204;-69
2022/05/09 02:45:03;;;;;;;2.87;2.20;;;10.50;93.40;;;;;;4980440;28;20212;-68
2022/05/09 02:47:30;;;;;;;3.40;2.47;;;10.50;93.30;;;;;;4974703;28;20240;-68
2022/05/09 02:49:57;;;;;;;5.20;3.03;;;10.40;93.20;;;;;;4976389;28;20296;-68
2022/05/09 02:52:23;;;;;;;4.70;2.80;;;10.40;93.40;;;;;;4973984;28;20688;-69
2022/05/09 02:54:51;;;;;;;2.90;2.03;;;10.40;93.70;;;;;;4986859;28;20208;-68
2022/05/09 02:57:19;;;;;;;4.93;2.57;;;10.40;93.40;;;;;;4982785;28;20243;-68
2022/05/09 02:59:46;;;;;;;2.90;2.20;;;10.30;93.70;;;;;;4979522;28;20213;-68
2022/05/09 03:02:14;;;;;;;3.23;2.30;;;10.30;93.40;;;;;;4975761;28;20324;-70
2022/05/09 03:04:40;;;;;;;3.47;2.37;;;10.30;93.50;;;;;;4980088;28;20216;-68
2022/05/09 03:07:09;;;;;;;3.33;2.20;;;10.20;93.60;;;;;;4977649;28;20545;-68
2022/05/09 03:09:36;;;;;;;2.63;2.17;;;10.30;93.60;;;;;;4979403;28;20244;-69
2022/05/09 03:12:04;;;;;;;5.30;2.33;;;10.20;93.50;;;;;;4980245;28;20205;-68
2022/05/09 03:14:32;;;;;;;2.60;2.30;;;10.20;93.60;;;;;;4988745;28;20207;-69
2022/05/09 03:16:59;;;;;;;4.50;2.80;;;10.20;93.60;;;;;;4977368;28;20218;-69
2022/05/09 03:19:27;;;;;;;2.63;2.20;;;10.20;93.50;;;;;;4979663;28;20292;-69
2022/05/09 03:21:55;;;;;;;3.20;2.63;;;10.20;93.50;;;;;;4979241;28;20422;-69
2022/05/09 03:24:21;;;;;;;2.23;2.03;;;10.20;93.50;;;;;;4979693;28;20296;-68
2022/05/09 03:26:49;;;;;;;3.73;2.27;;;10.10;93.40;;;;;;4978517;28;20296;-69
2022/05/09 03:29:18;;;;;;;3.47;2.20;;;10.20;93.10;;;;;;4978403;28;20252;-69
2022/05/09 03:31:46;;;;;;;2.43;2.10;;;10.10;93.00;;;;;;4979738;28;20220;-69
2022/05/09 03:34:13;;;;;;;5.03;1.93;;;10.10;92.90;;;;;;4979131;28;20232;-68
2022/05/09 03:36:41;;;;;;;2.93;2.03;;;10.10;92.80;;;;;;4977547;28;20218;-69
2022/05/09 03:39:09;;;;;;;2.83;1.90;;;10.10;92.70;;;;;;4978360;28;20213;-69
2022/05/09 03:41:36;;;;;;;3.37;1.90;;;10.10;92.60;;;;;;4979079;28;20247;-69
2022/05/09 03:44:03;;;;;;;5.47;1.80;;;10.10;92.60;;;;;;4978563;28;20240;-68
2022/05/09 03:46:30;;;;;;;3.40;2.40;;;10.10;92.10;;;;;;4983090;28;20296;-69
2022/05/09 03:48:57;;;;;;;6.10;1.93;;;10.10;92.10;;;;;;4977055;28;20212;-68
2022/05/09 03:51:24;;;;;;;4.73;2.20;;;10.10;92.10;;;;;;4979051;28;20534;-68
2022/05/09 03:53:52;;;;;;;3.53;2.27;;;10.00;92.00;;;;;;4978403;28;20248;-69
2022/05/09 03:56:19;;;;;;;2.63;1.90;;;10.10;92.10;;;;;;4977136;28;20207;-69
2022/05/09 03:58:46;;;;;;;2.10;1.90;;;10.10;92.10;;;;;;4977979;28;20294;-68
2022/05/09 04:01:13;;;;;;;3.00;2.03;;;10.10;91.90;;;;;;4978692;28;20647;-68
2022/05/09 04:03:40;;;;;;;5.43;1.83;;;10.20;91.60;;;;;;4977525;28;20259;-68
2022/05/09 04:06:07;;;;;;;4.23;1.90;;;10.20;91.30;;;;;;4977675;28;20296;-69
2022/05/09 04:08:33;;;;;;;3.17;2.03;;;10.20;91.40;;;;;;4977952;28;20253;-68
2022/05/09 04:11:02;;;;;;;3.23;1.90;;;10.10;91.20;;;;;;4978213;28;20211;-68
2022/05/09 04:13:28;;;;;;;2.10;1.80;;;10.30;91.40;;;;;;4978250;28;20264;-70
2022/05/09 04:18:42;;;;;;;4.77;2.70;;;10.30;91.10;;;;;;4978179;28;20296;-70
2022/05/09 04:21:11;;;;;;;4.47;1.97;;;10.30;90.90;;;;;;4978381;28;20204;-69
2022/05/09 04:23:38;;;;;;;2.70;1.70;;;10.40;90.80;;;;;;4979274;28;20215;-69
2022/05/09 04:26:07;;;;;;;2.83;2.10;;;10.40;90.50;;;;;;4977952;28;20212;-69
2022/05/09 04:28:34;;;;;;;4.40;2.17;;;10.40;90.20;;;;;;4974745;28;20276;-69
2022/05/09 04:31:03;;;;;;;3.27;1.87;;;10.40;90.30;;;;;;4972671;28;20240;-69
2022/05/09 04:33:30;;;;;;;2.30;1.70;;;10.40;90.30;;;;;;4978971;28;20747;-69
2022/05/09 04:35:58;;;;;;;2.80;1.90;;;10.40;90.00;;;;;;4978868;28;20628;-69
2022/05/09 04:38:25;;;;;;;5.27;1.53;;;10.40;89.40;;;;;;4976847;28;20572;-68
2022/05/09 04:40:56;;;;;;;4.53;1.63;;;10.40;89.40;;;;;;4977687;28;20209;-69
2022/05/09 04:43:26;;;;;;;2.77;2.03;;;10.40;89.40;;;;;;4978917;28;20664;-68
2022/05/09 04:45:53;;;;;;;2.07;1.80;;;10.50;89.20;;;;;;4976969;28;20573;-69
2022/05/09 04:48:22;;;;;;;3.43;2.20;;;10.50;88.80;;;;;;4976423;28;20213;-69
2022/05/09 04:50:49;;;;;;;2.37;1.97;;;10.50;88.50;;;;;;4977236;28;20262;-69
2022/05/09 04:53:17;;;;;;;3.33;1.63;;;10.60;88.40;;;;;;4978071;28;20236;-70
2022/05/09 04:55:44;;;;;;;4.43;2.23;;;10.70;88.10;;;;;;4978590;28;20691;-69
2022/05/09 04:58:12;;;;;;;4.10;1.43;;;10.80;87.50;;;;;;4989120;28;20254;-69
2022/05/09 05:00:40;;;;;;;1.47;1.37;;;10.80;86.90;;;;;;4973901;28;20204;-69
2022/05/09 05:03:07;;;;;;;1.90;1.40;;;10.90;86.70;;;;;;4978334;28;20204;-69
2022/05/09 05:05:34;;;;;;;1.80;1.53;;;11.00;85.80;;;;;;4977533;28;20223;-69
2022/05/09 05:08:02;;;;;;;2.17;1.47;;;11.10;85.30;;;;;;4975719;28;20243;-69
2022/05/09 05:10:30;;;;;;;5.00;1.97;;;11.10;84.90;;;;;;4978000;28;20298;-70
2022/05/09 05:12:58;;;;;;;1.90;1.37;;;11.10;84.10;;;;;;4977329;28;20231;-70
2022/05/09 05:15:25;;;;;;;2.03;1.60;;;11.20;83.50;;;;;;4975705;28;20220;-70
2022/05/09 05:17:54;;;;;;;3.47;1.30;;;11.20;83.20;;;;;;4974878;28;20296;-70
2022/05/09 05:20:21;;;;;;;1.87;1.43;;;11.30;81.90;;;;;;4990209;28;20214;-71
2022/05/09 05:22:49;;;;;;;5.97;1.60;;;11.20;81.50;;;;;;4978476;28;20236;-69
2022/05/09 05:25:19;;;;;;;1.70;1.20;;;11.20;81.50;;;;;;4983160;28;20303;-70
2022/05/09 05:27:47;;;;;;;4.30;1.60;;;11.30;81.40;;;;;;4979543;28;20213;-71
2022/05/09 05:30:15;;;;;;;2.97;1.30;;;11.20;80.80;;;;;;4976239;28;20244;-69
2022/05/09 05:32:42;;;;;;;5.90;1.60;;;11.30;81.60;;;;;;4974890;28;20208;-69
2022/05/09 05:35:14;;;;;;;4.37;1.53;;;11.40;81.40;;;;;;4977614;28;20288;-72
2022/05/09 05:37:41;;;;;;;3.20;1.80;;;11.50;81.30;;;;;;4977118;28;21009;-70
2022/05/09 05:40:09;;;;;;;3.37;1.53;;;11.60;81.20;;;;;;4980173;28;20243;-70
2022/05/09 05:42:38;;;;;;;3.23;1.60;;;11.70;80.60;;;;;;4978040;28;20613;-70
2022/05/09 05:45:06;;;;;;;4.47;1.40;;;11.80;80.00;;;;;;4978073;28;20235;-70
2022/05/09 05:47:33;;;;;;;1.40;1.30;;;12.00;79.40;;;;;;4976642;28;20246;-70
2022/05/09 05:50:00;;;;;;;2.30;1.37;;;12.00;78.80;;;;;;4981365;28;20266;-71
2022/05/09 05:52:28;;;;;;;4.00;1.30;;;12.10;78.40;;;;;;4977465;28;20240;-71
2022/05/09 05:54:55;;;;;;;8.17;1.57;;;12.10;77.70;;;;;;4977549;28;20229;-74
2022/05/09 05:57:25;;;;;;;4.23;1.07;;;12.20;77.10;;;;;;4976601;28;20208;-70
2022/05/09 05:59:54;;;;;;;3.20;1.67;;;12.30;77.30;;;;;;4971590;28;20264;-69
2022/05/09 06:02:23;;;;;;;4.27;1.40;;;12.40;77.30;;;;;;4974106;28;20283;-69
2022/05/09 06:04:50;;;;;;;3.47;1.20;;;12.50;76.80;;;;;;4971382;28;20295;-69
2022/05/09 06:07:18;;;;;;;4.13;1.40;;;12.60;76.50;;;;;;4974570;28;20641;-69
2022/05/09 06:09:49;;;;;;;2.73;1.10;;;12.70;75.60;;;;;;4970043;28;20309;-69
2022/05/09 06:12:19;;;;;;;2.00;1.20;;;12.80;75.20;;;;;;4963782;28;20201;-68
2022/05/09 06:15:24;;;;;;;5.37;1.37;;;12.90;74.90;;;;;;4967151;28;20794;-69
2022/05/09 06:17:35;;;;;;;3.43;1.20;;;13.00;75.40;;;;;;4963425;28;20287;-71
2022/05/09 06:20:02;;;;;;;2.63;1.20;;;13.20;74.10;;;;;;4973357;28;20215;-70
2022/05/09 06:22:29;;;;;;;3.03;1.30;;;13.10;72.80;;;;;;4977856;28;20212;-69
2022/05/09 06:24:59;;;;;;;2.23;1.10;;;13.10;72.90;;;;;;4979577;28;20583;-69
2022/05/09 06:27:26;;;;;;;4.17;1.90;;;13.10;72.80;;;;;;4977075;28;20568;-68
2022/05/09 06:29:53;;;;;;;3.63;1.27;;;13.10;73.00;;;;;;4977616;28;20659;-68
2022/05/09 06:32:24;;;;;;;3.03;1.10;;;13.20;71.70;;;;;;4977049;28;20255;-72
2022/05/09 06:34:51;;;;;;;3.63;1.30;;;13.20;71.00;;;;;;4980699;28;20224;-70
2022/05/09 06:37:18;;;;;;;3.27;1.30;;;13.10;71.60;;;;;;4981057;28;20619;-71
2022/05/09 06:39:45;;;;;;;2.20;1.40;;;13.20;72.30;;;;;;4981577;28;20264;-71
2022/05/09 06:42:14;;;;;;;1.63;1.30;;;13.40;73.10;;;;;;4976983;28;20280;-73
2022/05/09 06:44:41;;;;;;;3.03;1.30;;;13.60;72.40;;;;;;4981464;28;20263;-71
2022/05/09 06:47:07;;;;;;;4.40;1.40;;;13.70;71.80;;;;;;4986486;28;20215;-72
2022/05/09 06:49:35;;;;;;;2.27;0.80;;;13.90;71.70;;;;;;4981619;28;20272;-73
2022/05/09 06:52:02;;;;;;;2.33;1.10;;;14.00;71.20;;;;;;4981283;28;20236;-73
2022/05/09 06:54:29;;;;;;;6.10;1.20;;;14.10;71.00;;;;;;4986866;28;20307;-71
2022/05/09 06:56:56;;;;;;;2.80;1.40;;;14.30;70.60;;;;;;4993493;28;20212;-72
2022/05/09 06:59:27;;;;;;;3.33;1.47;;;14.40;70.90;;;;;;4979685;28;20226;-70
2022/05/09 07:01:53;;;;;;;4.93;1.10;;;14.60;69.60;;;;;;4980261;28;20725;-71
2022/05/09 07:04:21;;;;;;;2.60;1.13;;;14.80;69.40;;;;;;4980287;28;20613;-72
2022/05/09 07:06:48;;;;;;;2.00;1.00;;;14.90;69.00;;;;;;4991700;28;20215;-73
2022/05/09 07:09:15;;;;;;;1.57;1.47;;;15.00;68.40;;;;;;4978044;28;20205;-70
2022/05/09 07:11:43;;;;;;;3.83;1.43;;;15.10;67.90;;;;;;4978822;28;20217;-71
2022/05/09 07:14:11;;;;;;;3.13;1.17;;;15.20;67.10;;;;;;4978331;28;20636;-71
2022/05/09 07:16:40;;;;;;;3.43;1.37;;;15.20;66.20;;;;;;4978094;28;20634;-69
2022/05/09 07:19:07;;;;;;;2.43;1.20;;;15.30;66.90;;;;;;4991047;28;20712;-74
2022/05/09 07:21:34;;;;;;;2.13;1.00;;;15.50;66.10;;;;;;4978576;28;20205;-72
2022/05/09 07:24:01;;;;;;;4.37;1.20;;;15.60;66.00;;;;;;4979132;28;20213;-72
2022/05/09 07:26:28;;;;;;;2.23;1.13;;;15.70;65.00;;;;;;4979017;28;20200;-71
2022/05/09 07:28:55;;;;;;;6.43;1.10;;;15.70;64.00;;;;;;4979455;28;20268;-72
2022/05/09 07:31:22;;;;;;;4.10;1.67;;;15.80;65.50;;;;;;4992158;28;20698;-73
2022/05/09 07:33:51;;;;;;;3.20;1.50;;;15.90;63.80;;;;;;4976252;28;20598;-72
2022/05/09 07:36:18;;;;;;;5.47;1.93;;;16.00;62.90;;;;;;4981887;28;20303;-70
2022/05/09 07:38:45;;;;;;;7.40;1.63;;;16.00;63.00;;;;;;4980571;28;20299;-71
2022/05/09 07:41:12;;;;;;;2.90;1.20;;;16.10;63.50;;;;;;4982053;28;20216;-71
2022/05/09 07:43:39;;;;;;;2.47;1.10;;;16.20;62.50;;;;;;4982327;28;20212;-72
2022/05/09 07:46:06;;;;;;;4.30;1.30;;;16.30;60.50;;;;;;4981386;28;20201;-70
2022/05/09 07:48:33;;;;;;;4.97;1.33;;;16.30;60.10;;;;;;4982990;28;20284;-72
2022/05/09 07:51:01;;;;;;;3.23;1.03;;;16.30;59.40;;;;;;4982147;28;20317;-71
2022/05/09 07:53:31;;;;;;;3.23;0.80;;;16.30;59.80;;;;;;4981737;28;20232;-71
2022/05/09 07:55:58;;;;;;;3.13;1.10;;;16.30;59.10;;;;;;4976904;28;20229;-72
2022/05/09 07:58:25;;;;;;;2.17;0.90;;;16.30;59.10;;;;;;4978932;28;20205;-72
2022/05/09 08:00:51;;;;;;;2.00;0.90;;;16.40;58.90;;;;;;4993040;28;20795;-72
2022/05/09 08:03:20;;;;;;;3.57;1.07;;;16.50;57.60;;;;;;4982207;28;20205;-71
2022/05/09 08:05:48;;;;;;;2.90;1.10;;;16.50;56.50;;;;;;4972493;28;20200;-71
2022/05/09 08:08:16;;;;;;;1.47;0.90;;;16.70;57.00;;;;;;4988747;28;20263;-71
2022/05/09 08:10:45;;;;;;;2.43;1.17;;;16.50;56.70;;;;;;4984063;28;20250;-72
2022/05/09 08:13:14;;;;;;;6.13;0.80;;;16.50;55.90;;;;;;4972582;28;20632;-72
2022/05/09 08:15:41;;;;;;;5.17;1.40;;;16.50;56.20;;;;;;4978459;28;20254;-73
2022/05/09 08:18:09;;;;;;;2.77;0.93;;;16.60;55.60;;;;;;4978323;28;20244;-73
2022/05/09 08:20:37;;;;;;;2.40;1.00;;;16.60;55.40;;;;;;4981867;28;20232;-72
2022/05/09 08:23:07;;;;;;;2.40;0.80;;;16.60;54.80;;;;;;4976690;28;20217;-72
2022/05/09 08:25:37;;;;;;;3.88;1.38;;;16.60;54.80;;;;;;4980087;28;20661;-71
2022/05/09 08:28:05;;;;;;;2.75;1.08;;;16.70;55.00;;;;;;4986484;28;20215;-72
2022/05/09 08:30:34;;;;;;;3.28;1.08;;;16.80;55.30;;;;;;4977993;28;20236;-74
2022/05/09 08:33:04;;;;;;;2.07;0.70;;;17.10;54.80;;;;;;4979978;28;20209;-72
2022/05/09 08:35:32;;;;;;;2.97;0.82;;;17.20;54.00;;;;;;4980144;28;20220;-73
2022/05/09 08:37:59;;;;;;;4.05;0.93;;;17.30;53.10;;;;;;4972789;28;20216;-73
2022/05/09 08:40:33;;;;;;;0.95;0.80;;;17.30;53.00;;;;;;4984325;28;20279;-73
2022/05/09 08:43:15;;;;;;;3.80;0.93;;;17.30;52.50;;;;;;4982101;28;20276;-74
2022/05/09 08:45:48;;;;;;;1.98;1.00;;;17.20;52.50;;;;;;4978248;28;20213;-73
2022/05/09 08:48:50;;;;;;;1.30;1.15;;;17.40;53.20;;;;;;4977979;28;20236;-73
2022/05/09 08:51:33;;;;;;;1.90;1.00;;;17.50;52.00;;;;;;4960845;28;20212;-73
2022/05/09 08:54:06;;;;;;;1.52;0.90;;;17.60;52.10;;;;;;4977885;28;20220;-72
2022/05/09 08:56:34;;;;;;;6.18;1.80;;;17.90;52.50;;;;;;4979635;28;20211;-72
2022/05/09 08:59:11;;;;;;;4.15;1.85;;;18.10;52.40;;;;;;4977895;28;20329;-73
2022/05/09 09:01:42;;;;;;;1.80;1.20;;;18.30;51.90;;;;;;4983465;28;20241;-72
2022/05/09 09:04:21;;;;;;;1.77;1.02;;;18.60;51.60;;;;;;4980379;28;20581;-72
2022/05/09 09:06:59;;;;;;;2.97;1.00;;;18.70;51.10;;;;;;4973917;28;20268;-74
2022/05/09 09:09:40;;;;;;;3.35;1.05;;;18.80;50.50;;;;;;4976474;28;20295;-72
2022/05/09 09:12:14;;;;;;;3.65;1.10;;;19.00;50.40;;;;;;4977289;28;20226;-73
2022/05/09 09:14:56;;;;;;;2.47;0.98;;;19.10;50.60;;;;;;4980027;28;20255;-73
2022/05/09 09:17:35;;;;;;;1.77;1.05;;;19.30;50.50;;;;;;4976841;28;20244;-72
2022/05/09 09:20:18;;;;;;;3.95;1.15;;;19.50;49.90;;;;;;4977012;28;20572;-73
2022/05/09 09:22:57;;;;;;;2.55;1.63;;;19.80;49.50;;;;;;4978752;28;20208;-72
2022/05/09 09:25:35;;;;;;;2.63;0.80;;;20.00;48.90;;;;;;4977605;28;20201;-72
2022/05/09 09:28:07;;;;;;;2.83;1.08;;;20.20;48.30;;;;;;4980058;28;20204;-72
2022/05/09 09:30:37;;;;;;;2.28;1.42;;;20.30;48.40;;;;;;4976388;28;20244;-73
2022/05/09 09:33:06;;;;;;;3.80;1.00;;;20.50;47.80;;;;;;4980556;28;20204;-73
2022/05/09 09:35:43;;;;;;;1.30;1.15;;;20.60;47.30;;;;;;4979817;28;20235;-72
2022/05/09 09:38:18;;;;;;;1.83;0.70;;;20.70;46.50;;;;;;4977150;28;20255;-70
2022/05/09 09:40:46;;;;;;;2.83;1.38;;;20.70;46.50;;;;;;4979785;28;20208;-71
2022/05/09 09:43:13;;;;;;;5.15;1.00;;;20.80;46.60;;;;;;4976304;28;20227;-70
2022/05/09 09:45:46;;;;;;;1.80;0.90;;;20.90;45.90;;;;;;4974136;28;20216;-70
2022/05/09 09:48:18;;;;;;;2.53;1.00;;;21.00;46.20;;;;;;4977093;28;20701;-71
2022/05/09 09:51:01;;;;;;;1.90;0.90;;;21.20;45.60;;;;;;4983105;28;20695;-71
2022/05/09 09:53:38;;;;;;;2.40;1.20;;;21.40;45.20;;;;;;4978905;28;20934;-71
2022/05/09 09:56:09;;;;;;;6.18;1.05;;;21.40;44.40;;;;;;4975853;28;20223;-72
2022/05/09 09:58:39;;;;;;;2.92;1.08;;;21.50;44.20;;;;;;4972392;28;20216;-72
2022/05/09 10:01:13;;;;;;;4.03;1.00;;;21.50;43.60;;;;;;4972975;28;20610;-71
2022/05/09 10:03:43;;;;;;;5.85;0.90;;;21.40;42.70;;;;;;4978037;28;20209;-72
2022/05/09 10:06:15;;;;;;;1.20;0.80;;;21.10;42.40;;;;;;4982493;28;20210;-72
2022/05/09 10:08:43;;;;;;;1.65;0.80;;;21.10;43.20;;;;;;4978210;28;20215;-71
2022/05/09 10:11:13;;;;;;;1.50;1.10;;;21.30;44.00;;;;;;4981777;28;20208;-72
2022/05/09 10:13:44;;;;;;;1.08;0.73;;;21.50;43.90;;;;;;4979467;28;20267;-71
2022/05/09 10:16:22;;;;;;;4.40;1.52;;;21.60;44.00;;;;;;4974159;28;20257;-72
2022/05/09 10:18:50;;;;;;;2.20;0.90;;;21.80;43.50;;;;;;4977148;28;20321;-70
2022/05/09 10:26:56;;;;;;;1.10;1.00;;;21.60;42.60;;;;;;4994710;28;20192;-71
2022/05/09 10:29:25;;;;;;;1.30;1.10;;;21.60;42.80;;;;;;4975314;28;20276;-71
2022/05/09 10:31:56;;;;;;;3.00;0.70;;;21.60;42.70;;;;;;4979782;28;20273;-71
2022/05/09 10:34:28;;;;;;;2.75;0.88;;;21.70;42.10;;;;;;4979725;28;20259;-71
2022/05/09 10:37:00;;;;;;;0.98;0.68;;;21.90;41.90;;;;;;4981504;28;20205;-72
2022/05/09 10:39:31;;;;;;;6.97;2.95;;;22.00;42.80;;;;;;4979991;28;20232;-72
2022/05/09 10:42:00;;;;;;;4.03;1.25;;;22.10;43.00;;;;;;4979829;28;20860;-70
2022/05/09 10:44:34;;;;;;;2.47;1.00;;;22.20;43.10;;;;;;4977383;28;20283;-71
2022/05/09 10:47:09;;;;;;;4.13;0.82;;;22.30;42.40;;;;;;4978664;28;20240;-72
2022/05/09 10:49:45;;;;;;;1.63;0.90;;;22.40;41.50;;;;;;4979311;28;20211;-71
2022/05/09 10:52:26;;;;;;;3.60;0.95;;;22.40;42.30;;;;;;4979987;28;20201;-72
2022/05/09 10:55:01;;;;;;;2.08;1.05;;;22.40;40.60;;;;;;4972396;28;20619;-72
2022/05/09 10:57:32;;;;;;;1.95;0.75;;;22.40;40.90;;;;;;4980237;28;20196;-70
2022/05/09 11:00:05;;;;;;;2.55;0.80;;;22.20;40.20;;;;;;4979864;28;20238;-70
2022/05/09 11:02:39;;;;;;;6.10;0.73;;;22.20;41.70;;;;;;4977188;28;20215;-72
2022/05/09 11:05:07;;;;;;;0.60;0.60;;;22.40;41.30;;;;;;4977214;28;20221;-70
2022/05/09 11:07:40;;;;;;;1.52;0.93;;;22.50;40.80;;;;;;4978810;28;20250;-69
2022/05/09 11:10:28;;;;;;;2.80;0.85;;;22.60;40.70;;;;;;4979907;28;20264;-71
2022/05/09 11:13:12;;;;;;;3.28;0.90;;;22.80;39.70;;;;;;4976172;28;20243;-71
2022/05/09 11:15:48;;;;;;;2.53;0.80;;;22.90;39.20;;;;;;4975398;28;20624;-72
2022/05/09 11:18:29;;;;;;;2.28;0.80;;;22.90;38.30;;;;;;4980422;28;20220;-73
2022/05/09 11:21:08;;;;;;;2.65;1.00;;;22.90;38.40;;;;;;4978271;28;20292;-70
2022/05/09 11:23:43;;;;;;;3.30;0.70;;;22.80;38.40;;;;;;4980852;28;20215;-72
2022/05/09 11:26:15;;;;;;;1.80;0.75;;;22.60;39.40;;;;;;4974200;28;20200;-72
2022/05/09 11:29:16;;;;;;;2.17;0.80;;;22.70;39.50;;;;;;4980319;28;20256;-73
2022/05/09 11:31:58;;;;;;;5.68;0.98;;;22.80;39.60;;;;;;4980565;28;20288;-72
2022/05/09 11:34:40;;;;;;;1.10;0.90;;;22.80;39.20;;;;;;4981632;28;20209;-75
2022/05/09 11:37:21;;;;;;;1.08;0.70;;;23.10;38.50;;;;;;4993156;28;20196;-72
2022/05/09 11:40:00;;;;;;;0.85;0.80;;;23.20;37.80;;;;;;4988325;28;20212;-73
2022/05/09 11:45:29;;;;;;;1.23;0.93;;;23.20;37.20;;;;;;4983595;28;20227;-74
2022/05/09 11:48:08;;;;;;;1.38;0.77;;;23.30;37.20;;;;;;4971474;28;20584;-73
2022/05/09 11:50:46;;;;;;;1.38;0.70;;;23.40;37.20;;;;;;4979617;28;20204;-74
2022/05/09 11:53:15;;;;;;;3.53;0.88;;;23.40;36.90;;;;;;4981286;28;20263;-73
2022/05/09 11:55:43;;;;;;;2.70;0.73;;;23.30;36.60;;;;;;4979241;28;20236;-73
2022/05/09 11:58:11;;;;;;;1.30;0.73;;;23.10;36.80;;;;;;4978760;28;20282;-73
2022/05/09 12:00:51;;;;;;;1.52;0.90;;;22.90;36.50;;;;;;4976144;28;20232;-73
2022/05/09 12:04:02;;;;;;;2.97;0.65;;;22.80;37.30;;;;;;4981218;28;20205;-73
2022/05/09 12:06:42;;;;;;;2.15;1.23;;;22.70;36.70;;;;;;4969706;28;20201;-72
2022/05/09 12:09:11;;;;;;;1.00;0.70;;;22.80;37.00;;;;;;4971717;28;20208;-73
2022/05/09 12:11:52;;;;;;;3.78;1.17;;;22.90;37.60;;;;;;4980619;28;20681;-74
2022/05/09 12:14:46;;;;;;;1.25;1.13;;;23.00;37.30;;;;;;4981263;28;20205;-73
2022/05/09 12:17:33;;;;;;;1.15;0.95;;;23.10;37.30;;;;;;4969696;28;20205;-72
2022/05/09 12:20:00;;;;;;;3.05;1.13;;;22.90;37.00;;;;;;4973242;28;20212;-72
2022/05/09 12:22:49;;;;;;;0.80;0.70;;;22.60;37.60;;;;;;4973293;28;20239;-72
2022/05/09 12:25:59;;;;;;;1.20;1.10;;;22.50;38.20;;;;;;4970053;28;20205;-71
2022/05/09 12:28:29;;;;;;;3.80;0.85;;;22.50;38.50;;;;;;4973955;28;20228;-72
2022/05/09 12:30:58;;;;;;;1.27;0.88;;;22.50;38.60;;;;;;4974304;28;20432;-72
2022/05/09 12:33:36;;;;;;;2.33;1.10;;;22.50;38.40;;;;;;4974776;28;20244;-71
2022/05/09 12:36:09;;;;;;;5.32;1.40;;;22.60;38.80;;;;;;4972258;28;20280;-72
2022/05/09 12:38:39;;;;;;;1.92;0.80;;;22.70;38.80;;;;;;4971462;28;20568;-73
2022/05/09 12:41:11;;;;;;;2.53;0.95;;;22.80;38.70;;;;;;4969402;28;20240;-73
2022/05/09 12:43:41;;;;;;;1.80;0.85;;;22.80;38.90;;;;;;4981587;28;20205;-71
2022/05/09 12:46:17;;;;;;;2.92;0.73;;;22.90;38.90;;;;;;4975222;28;20232;-72
2022/05/09 12:48:44;;;;;;;1.58;0.77;;;23.00;38.60;;;;;;4983264;28;20268;-70
2022/05/09 12:51:14;;;;;;;1.80;0.90;;;23.10;38.50;;;;;;4978142;28;20219;-72
2022/05/09 12:53:43;;;;;;;1.50;1.00;;;23.20;38.40;;;;;;4981679;28;20217;-73
2022/05/09 12:56:13;;;;;;;5.07;1.00;;;23.30;38.30;;;;;;4983312;28;20224;-73
2022/05/09 12:58:43;;;;;;;3.42;1.23;;;23.20;38.10;;;;;;4979517;28;20691;-73
2022/05/09 13:01:14;;;;;;;3.97;0.93;;;23.00;37.80;;;;;;4979738;28;20267;-74
2022/05/09 13:03:47;;;;;;;3.25;1.15;;;22.80;37.30;;;;;;4978932;28;20204;-71
2022/05/09 13:06:16;;;;;;;1.60;0.93;;;22.60;37.80;;;;;;4979745;28;20280;-71
2022/05/09 13:08:44;;;;;;;1.45;0.50;;;22.30;37.60;;;;;;4979442;28;20247;-72
2022/05/09 13:11:17;;;;;;;1.95;1.02;;;22.10;37.30;;;;;;4979165;28;20236;-72
2022/05/09 13:14:02;;;;;;;3.03;1.02;;;21.80;37.40;;;;;;4977662;28;20232;-72
2022/05/09 13:16:35;;;;;;;1.63;0.95;;;21.70;38.00;;;;;;4979436;28;20220;-71
2022/05/09 13:19:02;;;;;;;3.65;0.90;;;21.70;38.00;;;;;;4991809;28;20676;-73
2022/05/09 13:21:36;;;;;;;1.20;0.85;;;21.70;37.50;;;;;;4982081;28;20657;-74